Airport ICAO


13:30 UTC

26°C


An affordable passengers' Moving Map for your aircraft. Made for the iPad and the iPhone
More information here

LFMC Le Cannet


Le Luc FRANCE   


METAR LFMC 271300Z AUTO 07013KT 050V110 9999 ////// 26/17 Q1015 0h30min





NOTAMS

OPEN